createdAt,value
2023-03-21T00:00:48.241Z,96828.00
2023-03-21T00:03:17.074Z,96825.59
2023-03-21T00:05:49.999Z,96825.81
2023-03-21T00:08:18.038Z,96823.03
2023-03-21T00:10:45.918Z,96824.09
2023-03-21T00:13:14.629Z,96820.72
2023-03-21T00:16:05.636Z,96812.94
2023-03-21T00:18:42.221Z,96811.16
2023-03-21T00:21:39.572Z,96810.50
2023-03-21T00:24:03.553Z,96806.19
2023-03-21T00:26:31.676Z,96811.38
2023-03-21T00:28:59.532Z,96807.88
2023-03-21T00:31:27.603Z,96801.16
2023-03-21T00:33:55.475Z,96803.06
2023-03-21T00:36:27.025Z,96793.44
2023-03-21T00:38:55.541Z,96789.03
2023-03-21T00:41:39.222Z,96784.59
2023-03-21T00:44:09.343Z,96792.50
2023-03-21T00:46:45.591Z,96786.59
2023-03-21T00:49:20.697Z,96790.28
2023-03-21T00:51:51.684Z,96784.78
2023-03-21T00:54:19.891Z,96780.47
2023-03-21T00:56:47.783Z,96782.28
2023-03-21T00:59:17.151Z,96778.06
2023-03-21T01:01:46.702Z,96770.16
2023-03-21T01:04:17.240Z,96772.91
2023-03-21T01:06:45.585Z,96769.53
2023-03-21T01:09:18.251Z,96765.09
2023-03-21T01:11:46.750Z,96764.25
2023-03-21T01:14:23.585Z,96755.75
2023-03-21T01:16:53.269Z,96759.13
2023-03-21T01:19:29.008Z,96757.41
2023-03-21T01:21:59.479Z,96762.91
2023-03-21T01:24:28.756Z,96761.94
2023-03-21T01:26:56.618Z,96761.94
2023-03-21T01:29:24.523Z,96765.53
2023-03-21T01:31:52.425Z,96768.19
2023-03-21T01:34:20.350Z,96758.78
2023-03-21T01:36:48.379Z,96763.97
2023-03-21T01:39:20.021Z,96761.44
2023-03-21T01:41:51.716Z,96760.69
2023-03-21T01:44:23.372Z,96765.22
2023-03-21T01:47:07.715Z,96759.00
2023-03-21T01:49:48.574Z,96752.91
2023-03-21T01:52:49.999Z,96756.38
2023-03-21T01:55:26.328Z,96745.09
2023-03-21T01:58:18.270Z,96754.81
2023-03-21T02:01:03.011Z,96745.94
2023-03-21T02:03:52.824Z,96748.56
2023-03-21T02:06:37.384Z,96744.31
2023-03-21T02:09:34.488Z,96739.91
2023-03-21T02:12:03.783Z,96748.03
2023-03-21T02:14:37.550Z,96742.97
2023-03-21T02:17:20.749Z,96742.34
2023-03-21T02:20:45.811Z,96736.84
2023-03-21T02:23:43.673Z,96731.88
2023-03-21T02:26:42.346Z,96733.69
2023-03-21T02:29:31.018Z,96733.81
2023-03-21T02:32:20.296Z,96729.38
2023-03-21T02:35:21.970Z,96724.13
2023-03-21T02:38:00.513Z,96726.75
2023-03-21T02:40:36.493Z,96725.03
2023-03-21T02:43:22.133Z,96726.22
2023-03-21T02:45:54.894Z,96722.84
2023-03-21T02:48:33.146Z,96714.97
2023-03-21T02:51:09.022Z,96724.75
2023-03-21T02:53:41.767Z,96724.75
2023-03-21T02:56:11.486Z,96731.06
2023-03-21T02:58:46.569Z,96724.97
2023-03-21T03:01:14.567Z,96729.28
2023-03-21T03:03:49.270Z,96723.50
2023-03-21T03:06:20.808Z,96726.75
2023-03-21T03:09:04.318Z,96719.16
2023-03-21T03:11:36.554Z,96719.91
2023-03-21T03:17:21.571Z,96717.25
2023-03-21T03:20:10.258Z,96718.22
2023-03-21T03:22:54.018Z,96716.34
2023-03-21T03:25:41.728Z,96718.97
2023-03-21T03:28:12.537Z,96717.25
2023-03-21T03:30:51.229Z,96712.22
2023-03-21T03:33:31.880Z,96720.84
2023-03-21T03:36:05.605Z,96715.69
2023-03-21T03:38:38.035Z,96706.31
2023-03-21T03:41:12.013Z,96710.75
2023-03-21T03:43:50.951Z,96699.47
2023-03-21T03:46:25.208Z,96699.47
2023-03-21T03:48:56.665Z,96696.09
2023-03-21T03:51:29.688Z,96705.03
2023-03-21T03:54:21.134Z,96700.84
2023-03-21T03:56:51.649Z,96700.00
2023-03-21T03:59:21.951Z,96702.72
2023-03-21T04:01:59.585Z,96702.72
2023-03-21T04:04:29.180Z,96691.38
2023-03-21T04:06:59.527Z,96695.78
2023-03-21T04:09:42.558Z,96695.06
2023-03-21T04:12:14.511Z,96697.91
2023-03-21T04:14:51.913Z,96701.47
2023-03-21T04:17:21.109Z,96698.09
2023-03-21T04:19:53.800Z,96694.94
2023-03-21T04:22:27.013Z,96690.13
2023-03-21T04:24:55.135Z,96693.66
2023-03-21T04:27:24.561Z,96699.38
2023-03-21T04:30:21.186Z,96702.09
2023-03-21T04:32:56.953Z,96689.34
2023-03-21T04:35:26.685Z,96686.09
2023-03-21T04:37:54.576Z,96690.81
2023-03-21T04:40:22.457Z,96690.47
2023-03-21T04:42:52.058Z,96695.13
2023-03-21T04:45:20.073Z,96687.53
2023-03-21T04:47:48.383Z,96691.31
2023-03-21T04:50:17.208Z,96683.72
2023-03-21T04:52:45.083Z,96696.34
2023-03-21T04:55:12.931Z,96693.25
2023-03-21T04:57:41.420Z,96694.59
2023-03-21T05:00:13.856Z,96693.31
2023-03-21T05:02:41.918Z,96690.91
2023-03-21T05:05:11.914Z,96693.91
2023-03-21T05:07:40.357Z,96692.25
2023-03-21T05:10:11.786Z,96695.25
2023-03-21T05:12:42.109Z,96694.72
2023-03-21T05:15:12.656Z,96699.22
2023-03-21T05:17:42.654Z,96703.53
2023-03-21T05:20:11.903Z,96694.81
2023-03-21T05:22:41.340Z,96693.00
2023-03-21T05:25:14.121Z,96688.81
2023-03-21T05:28:03.083Z,96695.63
2023-03-21T05:30:34.104Z,96696.50
2023-03-21T05:33:03.035Z,96694.72
2023-03-21T05:35:31.228Z,96703.34
2023-03-21T05:38:02.149Z,96703.53
2023-03-21T05:40:33.773Z,96701.44
2023-03-21T05:43:02.888Z,96694.50
2023-03-21T05:45:31.027Z,96700.81
2023-03-21T05:48:00.788Z,96697.06
2023-03-21T05:50:35.107Z,96708.50
2023-03-21T05:53:17.243Z,96709.16
2023-03-21T05:55:45.118Z,96704.81
2023-03-21T05:58:22.839Z,96711.78
2023-03-21T06:00:52.314Z,96708.41
2023-03-21T06:03:29.031Z,96711.31
2023-03-21T06:06:03.414Z,96715.63
2023-03-21T06:08:37.104Z,96710.28
2023-03-21T06:11:05.387Z,96710.38
2023-03-21T06:13:35.779Z,96711.22
2023-03-21T06:16:03.631Z,96712.69
2023-03-21T06:18:35.751Z,96710.06
2023-03-21T06:21:20.794Z,96713.56
2023-03-21T06:23:51.686Z,96711.88
2023-03-21T06:26:22.898Z,96707.56
2023-03-21T06:28:52.512Z,96706.53
2023-03-21T06:31:22.518Z,96709.03
2023-03-21T06:33:54.393Z,96701.06
2023-03-21T06:36:22.785Z,96707.69
2023-03-21T06:38:50.714Z,96697.75
2023-03-21T06:41:18.561Z,96702.78
2023-03-21T06:43:55.518Z,96701.75
2023-03-21T06:46:24.226Z,96695.88
2023-03-21T06:48:53.710Z,96694.63
2023-03-21T06:51:21.663Z,96706.44
2023-03-21T06:54:07.694Z,96704.25
2023-03-21T06:56:48.177Z,96708.38
2023-03-21T06:59:23.538Z,96700.38
2023-03-21T07:01:56.252Z,96702.28
2023-03-21T07:04:27.512Z,96699.78
2023-03-21T07:06:57.153Z,96703.69
2023-03-21T07:09:28.042Z,96693.91
2023-03-21T07:11:58.689Z,96689.16
2023-03-21T07:14:36.409Z,96689.50
2023-03-21T07:17:05.253Z,96695.16
2023-03-21T07:19:34.682Z,96692.94
2023-03-21T07:22:02.521Z,96697.47
2023-03-21T07:24:30.392Z,96694.31
2023-03-21T07:26:58.713Z,96697.25
2023-03-21T07:29:26.612Z,96686.78
2023-03-21T07:31:54.509Z,96689.00
2023-03-21T07:34:23.661Z,96693.41
2023-03-21T07:36:52.929Z,96701.50
2023-03-21T07:39:21.177Z,96698.34
2023-03-21T07:41:49.041Z,96697.69
2023-03-21T07:44:31.347Z,96696.06
2023-03-21T07:47:04.156Z,96696.56
2023-03-21T07:49:32.383Z,96695.06
2023-03-21T07:52:04.720Z,96695.44
2023-03-21T07:54:32.980Z,96692.34
2023-03-21T07:57:02.321Z,96687.22
2023-03-21T07:59:30.587Z,96687.41
2023-03-21T08:01:58.520Z,96679.00
2023-03-21T08:04:27.909Z,96681.31
2023-03-21T08:06:57.342Z,96677.88
2023-03-21T08:09:26.681Z,96678.59
2023-03-21T08:11:54.567Z,96680.28
2023-03-21T08:14:22.422Z,96682.25
2023-03-21T08:16:50.382Z,96677.09
2023-03-21T08:19:18.797Z,96676.59
2023-03-21T08:21:46.651Z,96673.59
2023-03-21T08:24:14.558Z,96675.88
2023-03-21T08:26:45.943Z,96670.38
2023-03-21T08:29:14.373Z,96674.81
2023-03-21T08:31:42.485Z,96667.34
2023-03-21T08:34:10.378Z,96671.84
2023-03-21T08:36:38.509Z,96669.56
2023-03-21T08:39:06.580Z,96657.06
2023-03-21T08:41:35.957Z,96667.59
2023-03-21T08:44:06.916Z,96663.28
2023-03-21T08:46:34.846Z,96659.19
2023-03-21T08:49:02.775Z,96659.31
2023-03-21T08:51:31.706Z,96657.00
2023-03-21T08:53:59.607Z,96655.91
2023-03-21T08:56:27.484Z,96661.19
2023-03-21T08:58:55.311Z,96652.06
2023-03-21T09:01:24.480Z,96645.41
2023-03-21T09:03:52.570Z,96652.84
2023-03-21T09:06:20.405Z,96650.56
2023-03-21T09:08:48.463Z,96646.28
2023-03-21T09:11:16.306Z,96647.94
2023-03-21T09:13:44.150Z,96651.03
2023-03-21T09:16:11.982Z,96657.88
2023-03-21T09:18:48.807Z,96664.09
2023-03-21T09:21:20.018Z,96650.84
2023-03-21T09:23:48.738Z,96642.03
2023-03-21T09:26:17.237Z,96649.69
2023-03-21T09:28:46.242Z,96647.09
2023-03-21T09:31:16.456Z,96647.56
2023-03-21T09:33:46.242Z,96648.56
2023-03-21T09:36:15.514Z,96644.78
2023-03-21T09:38:45.539Z,96650.72
2023-03-21T09:41:28.373Z,96651.56
2023-03-21T09:44:12.077Z,96647.09
2023-03-21T09:46:46.369Z,96655.75
2023-03-21T09:49:20.999Z,96645.28
2023-03-21T09:51:52.802Z,96636.53
2023-03-21T09:54:24.996Z,96629.00
2023-03-21T09:56:56.272Z,96635.25
2023-03-21T09:59:33.228Z,96643.06
2023-03-21T10:02:03.258Z,96638.31
2023-03-21T10:04:33.922Z,96632.06
2023-03-21T10:07:04.045Z,96625.34
2023-03-21T10:09:34.840Z,96625.25
2023-03-21T10:12:07.391Z,96627.63
2023-03-21T10:14:38.611Z,96618.41
2023-03-21T10:17:25.281Z,96615.78
2023-03-21T10:20:00.106Z,96617.72
2023-03-21T10:22:28.122Z,96614.38
2023-03-21T10:24:55.994Z,96614.38
2023-03-21T10:27:23.838Z,96613.13
2023-03-21T10:29:53.267Z,96616.31
2023-03-21T10:32:22.872Z,96613.97
2023-03-21T10:37:27.123Z,96613.53
2023-03-21T10:39:56.650Z,96611.59
2023-03-21T10:42:26.476Z,96616.63
2023-03-21T10:44:56.434Z,96615.38
2023-03-21T10:47:26.988Z,96616.50
2023-03-21T10:50:07.288Z,96626.28
2023-03-21T10:52:39.445Z,96623.34
2023-03-21T10:55:17.637Z,96622.63
2023-03-21T10:57:47.327Z,96628.81
2023-03-21T11:00:21.949Z,96622.78
2023-03-21T11:02:51.570Z,96620.97
2023-03-21T11:05:24.046Z,96618.88
2023-03-21T11:08:00.980Z,96616.06
2023-03-21T11:10:31.948Z,96609.66
2023-03-21T11:13:04.849Z,96606.88
2023-03-21T11:15:39.076Z,96607.28
2023-03-21T11:18:16.949Z,96610.63
2023-03-21T11:20:51.849Z,96605.16
2023-03-21T11:23:26.488Z,96608.25
2023-03-21T11:25:55.883Z,96599.59
2023-03-21T11:28:26.040Z,96600.72
2023-03-21T11:30:56.269Z,96596.09
2023-03-21T11:33:28.148Z,96596.22
2023-03-21T11:36:01.079Z,96593.44
2023-03-21T11:38:33.537Z,96586.16
2023-03-21T11:41:02.918Z,96588.53
2023-03-21T11:43:33.579Z,96583.09
2023-03-21T11:46:07.253Z,96585.06
2023-03-21T11:48:41.594Z,96581.69
2023-03-21T11:51:21.152Z,96576.13
2023-03-21T11:53:57.031Z,96568.69
2023-03-21T11:56:28.587Z,96562.69
2023-03-21T11:59:15.948Z,96556.81
2023-03-21T12:01:59.445Z,96549.28
2023-03-21T12:04:46.958Z,96555.16
2023-03-21T12:07:28.725Z,96546.75
2023-03-21T12:10:07.003Z,96552.63
2023-03-21T12:12:42.646Z,96549.97
2023-03-21T12:15:18.579Z,96544.38
2023-03-21T12:17:55.477Z,96533.59
2023-03-21T12:20:40.427Z,96529.66
2023-03-21T12:23:29.545Z,96525.75
2023-03-21T12:26:13.259Z,96518.47
2023-03-21T12:28:52.642Z,96518.72
2023-03-21T12:31:30.364Z,96515.19
2023-03-21T12:34:11.307Z,96508.16
2023-03-21T12:36:54.339Z,96508.28
2023-03-21T12:39:30.054Z,96503.78
2023-03-21T12:42:23.480Z,96505.84
2023-03-21T12:44:58.823Z,96504.19
2023-03-21T12:47:30.386Z,96497.59
2023-03-21T12:50:04.775Z,96497.28
2023-03-21T12:52:39.809Z,96490.84
2023-03-21T12:55:18.554Z,96489.38
2023-03-21T12:57:57.629Z,96497.47
2023-03-21T13:00:31.306Z,96490.72
2023-03-21T13:03:03.705Z,96490.19
2023-03-21T13:05:36.125Z,96487.78
2023-03-21T13:08:10.097Z,96492.91
2023-03-21T13:10:39.491Z,96491.25
2023-03-21T13:13:20.870Z,96495.50
2023-03-21T13:16:17.993Z,96483.75
2023-03-21T13:18:56.457Z,96483.06
2023-03-21T13:21:38.417Z,96483.22
2023-03-21T13:24:19.880Z,96480.78
2023-03-21T13:26:51.981Z,96478.72
2023-03-21T13:29:27.609Z,96476.28
2023-03-21T13:31:57.819Z,96472.03
2023-03-21T13:34:26.793Z,96468.41
2023-03-21T13:36:57.870Z,96469.28
2023-03-21T13:39:28.534Z,96469.28
2023-03-21T13:42:03.485Z,96456.66
2023-03-21T13:44:42.357Z,96462.66
2023-03-21T13:47:29.522Z,96458.69
2023-03-21T13:50:23.644Z,96450.56
2023-03-21T13:53:22.768Z,96447.06
2023-03-21T13:56:01.715Z,96442.88
2023-03-21T13:58:36.456Z,96442.88
2023-03-21T14:01:28.635Z,96437.16
2023-03-21T14:04:04.081Z,96445.84
2023-03-21T14:06:36.217Z,96435.03
2023-03-21T14:09:04.842Z,96434.72
2023-03-21T14:11:36.758Z,96428.59
2023-03-21T14:14:05.491Z,96424.41
2023-03-21T14:16:35.082Z,96422.25
2023-03-21T14:19:05.657Z,96420.44
2023-03-21T14:21:35.972Z,96418.47
2023-03-21T14:24:05.937Z,96421.97
2023-03-21T14:26:36.457Z,96420.81
2023-03-21T14:29:12.275Z,96426.28
2023-03-21T14:31:48.981Z,96417.47
2023-03-21T14:34:18.016Z,96421.66
2023-03-21T14:36:56.969Z,96414.34
2023-03-21T14:39:29.181Z,96408.88
2023-03-21T14:42:03.572Z,96411.69
2023-03-21T14:44:47.400Z,96417.00
2023-03-21T14:47:24.192Z,96409.72
2023-03-21T14:49:52.910Z,96406.72
2023-03-21T14:52:24.960Z,96406.59
2023-03-21T14:54:54.615Z,96394.94
2023-03-21T14:57:24.978Z,96401.78
2023-03-21T14:59:56.144Z,96404.44
2023-03-21T15:02:28.462Z,96394.47
2023-03-21T15:04:59.527Z,96387.03
2023-03-21T15:07:30.564Z,96387.72
2023-03-21T15:10:03.617Z,96394.69
2023-03-21T15:12:31.762Z,96379.88
2023-03-21T15:15:01.423Z,96380.34
2023-03-21T15:17:31.657Z,96389.00
2023-03-21T15:19:59.598Z,96381.00
2023-03-21T15:22:33.489Z,96383.47
2023-03-21T15:25:05.749Z,96389.03
2023-03-21T15:27:38.493Z,96398.38
2023-03-21T15:30:08.002Z,96402.94
2023-03-21T15:32:38.281Z,96404.09
2023-03-21T15:35:08.527Z,96399.38
2023-03-21T15:37:38.732Z,96411.78
2023-03-21T15:40:17.721Z,96402.81
2023-03-21T15:42:45.727Z,96407.66
2023-03-21T15:45:22.245Z,96395.81
2023-03-21T15:48:03.090Z,96398.22
2023-03-21T15:50:36.685Z,96406.50
2023-03-21T15:53:08.000Z,96403.47
2023-03-21T15:55:43.613Z,96406.03
2023-03-21T15:58:18.223Z,96406.03
2023-03-21T16:00:54.414Z,96406.78
2023-03-21T16:03:27.223Z,96414.91
2023-03-21T16:06:17.040Z,96412.69
2023-03-21T16:08:47.504Z,96408.50
2023-03-21T16:11:20.113Z,96406.59
2023-03-21T16:13:48.082Z,96392.47
2023-03-21T16:16:21.147Z,96401.41
2023-03-21T16:18:51.679Z,96400.91
2023-03-21T16:21:21.568Z,96404.00
2023-03-21T16:23:50.043Z,96408.06
2023-03-21T16:26:21.436Z,96407.13
2023-03-21T16:28:50.084Z,96406.13
2023-03-21T16:31:19.913Z,96409.09
2023-03-21T16:33:48.861Z,96409.22
2023-03-21T16:36:20.295Z,96417.63
2023-03-21T16:38:51.357Z,96418.34
2023-03-21T16:41:21.542Z,96422.66
2023-03-21T16:43:50.588Z,96420.16
2023-03-21T16:46:20.621Z,96423.38
2023-03-21T16:48:50.234Z,96430.22
2023-03-21T16:53:51.607Z,96434.13
2023-03-21T16:56:24.367Z,96432.63
2023-03-21T16:58:54.719Z,96426.59
2023-03-21T17:01:26.050Z,96421.91
2023-03-21T17:03:55.754Z,96423.72
2023-03-21T17:06:27.144Z,96425.50
2023-03-21T17:08:56.164Z,96430.28
2023-03-21T17:11:26.507Z,96424.41
2023-03-21T17:13:56.138Z,96419.41
2023-03-21T17:16:27.263Z,96420.66
2023-03-21T17:18:56.067Z,96424.31
2023-03-21T17:21:27.896Z,96427.91
2023-03-21T17:23:56.542Z,96425.56
2023-03-21T17:26:27.047Z,96428.50
2023-03-21T17:28:56.757Z,96424.16
2023-03-21T17:31:26.702Z,96425.44
2023-03-21T17:33:54.826Z,96441.38
2023-03-21T17:36:29.446Z,96429.50
2023-03-21T17:38:57.922Z,96436.75
2023-03-21T17:41:27.366Z,96429.91
2023-03-21T17:43:55.798Z,96432.84
2023-03-21T17:46:27.206Z,96432.44
2023-03-21T17:48:56.152Z,96434.09
2023-03-21T17:51:26.245Z,96435.38
2023-03-21T17:53:55.781Z,96434.81
2023-03-21T17:56:27.069Z,96435.94
2023-03-21T17:58:55.511Z,96438.59
2023-03-21T18:01:24.277Z,96441.53
2023-03-21T18:03:54.706Z,96436.66
2023-03-21T18:06:24.972Z,96438.44
2023-03-21T18:08:53.855Z,96445.97
2023-03-21T18:11:24.905Z,96447.78
2023-03-21T18:14:03.588Z,96442.38
2023-03-21T18:16:38.129Z,96452.25
2023-03-21T18:19:05.964Z,96452.81
2023-03-21T18:21:35.823Z,96454.50
2023-03-21T18:24:03.919Z,96446.81
2023-03-21T18:26:33.361Z,96451.56
2023-03-21T18:30:03.754Z,96447.91
2023-03-21T18:32:04.387Z,96444.56
2023-03-21T18:34:34.090Z,96444.03
2023-03-21T18:37:04.018Z,96437.03
2023-03-21T18:39:33.031Z,96438.13
2023-03-21T18:42:04.061Z,96433.00
2023-03-21T18:44:39.467Z,96434.25
2023-03-21T18:47:08.516Z,96432.84
2023-03-21T18:52:26.380Z,96445.94
2023-03-21T18:54:54.893Z,96452.47
2023-03-21T18:57:36.428Z,96455.13
2023-03-21T19:00:12.547Z,96463.63
2023-03-21T19:02:46.746Z,96465.44
2023-03-21T19:05:17.291Z,96462.09
2023-03-21T19:07:45.614Z,96464.06
2023-03-21T19:10:18.908Z,96465.72
2023-03-21T19:12:49.427Z,96457.03
2023-03-21T19:15:19.669Z,96442.38
2023-03-21T19:20:36.820Z,96455.91
2023-03-21T19:23:06.064Z,96458.44
2023-03-21T19:25:33.943Z,96460.78
2023-03-21T19:28:03.802Z,96454.66
2023-03-21T19:30:31.602Z,96461.06
2023-03-21T19:32:59.558Z,96464.13
2023-03-21T19:35:28.352Z,96458.94
2023-03-21T19:37:56.674Z,96450.00
2023-03-21T19:40:24.592Z,96446.22
2023-03-21T19:42:52.758Z,96442.34
2023-03-21T19:45:21.961Z,96429.38
2023-03-21T19:47:49.881Z,96435.50
2023-03-21T19:53:05.684Z,96458.22
2023-03-21T19:55:34.041Z,96451.13
2023-03-21T19:58:02.112Z,96454.16
2023-03-21T20:00:31.416Z,96447.22
2023-03-21T20:03:00.157Z,96443.41
2023-03-21T20:05:28.535Z,96438.13
2023-03-21T20:07:57.235Z,96433.34
2023-03-21T20:10:27.504Z,96436.72
2023-03-21T20:12:55.728Z,96437.41
2023-03-21T20:15:26.786Z,96443.53
2023-03-21T20:17:57.840Z,96443.13
2023-03-21T20:20:26.075Z,96430.72
2023-03-21T20:23:11.257Z,96420.41
2023-03-21T20:25:44.951Z,96436.28
2023-03-21T20:28:17.072Z,96441.13
2023-03-21T20:30:52.957Z,96440.44
2023-03-21T20:33:22.277Z,96438.06
2023-03-21T20:38:39.391Z,96448.44
2023-03-21T20:41:08.344Z,96446.91
2023-03-21T20:46:24.519Z,96446.19
2023-03-21T20:48:54.124Z,96443.94
2023-03-21T20:54:11.163Z,96454.09
2023-03-21T20:56:39.127Z,96454.38
2023-03-21T20:59:17.686Z,96452.22
2023-03-21T21:01:52.129Z,96456.69
2023-03-21T21:04:22.691Z,96458.75
2023-03-21T21:06:51.404Z,96465.97
2023-03-21T21:09:19.295Z,96467.22
2023-03-21T21:14:37.009Z,96470.09
2023-03-21T21:17:23.148Z,96465.78
2023-03-21T21:19:55.653Z,96465.19
2023-03-21T21:22:23.552Z,96461.72
2023-03-21T21:24:51.397Z,96461.72
2023-03-21T21:27:19.915Z,96460.19
2023-03-21T21:29:50.205Z,96455.88
2023-03-21T21:32:19.587Z,96456.97
2023-03-21T21:34:48.328Z,96452.91
2023-03-21T21:37:17.594Z,96448.56
2023-03-21T21:39:45.711Z,96446.78
2023-03-21T21:42:13.556Z,96447.59
2023-03-21T21:44:44.222Z,96451.19
2023-03-21T21:47:12.395Z,96454.56
2023-03-21T21:49:41.230Z,96454.56
2023-03-21T21:52:13.597Z,96449.28
2023-03-21T21:54:45.727Z,96449.53
2023-03-21T21:57:13.952Z,96448.81
2023-03-21T21:59:41.900Z,96456.75
2023-03-21T22:02:11.071Z,96457.97
2023-03-21T22:04:38.999Z,96455.84
2023-03-21T22:07:14.087Z,96454.31
2023-03-21T22:09:44.568Z,96446.75
2023-03-21T22:12:12.391Z,96453.97
2023-03-21T22:14:40.440Z,96454.81
2023-03-21T22:17:08.294Z,96459.53
2023-03-21T22:19:37.105Z,96449.19
2023-03-21T22:22:06.718Z,96448.34
2023-03-21T22:24:35.811Z,96445.81
2023-03-21T22:27:05.149Z,96445.38
2023-03-21T22:29:33.001Z,96451.50
2023-03-21T22:32:00.938Z,96445.88
2023-03-21T22:34:28.929Z,96457.31
2023-03-21T22:36:57.647Z,96451.63
2023-03-21T22:39:26.436Z,96463.03
2023-03-21T22:41:56.594Z,96463.41
2023-03-21T22:44:25.950Z,96466.78
2023-03-21T22:46:53.798Z,96470.38
2023-03-21T22:49:21.667Z,96471.56
2023-03-21T22:51:49.585Z,96473.03
2023-03-21T22:54:17.399Z,96461.28
2023-03-21T22:56:45.221Z,96471.75
2023-03-21T22:59:13.072Z,96464.22
2023-03-21T23:01:42.380Z,96459.69
2023-03-21T23:04:10.341Z,96460.88
2023-03-21T23:06:38.431Z,96461.25
2023-03-21T23:09:06.397Z,96462.56
2023-03-21T23:11:34.250Z,96464.88
2023-03-21T23:14:08.058Z,96465.25
2023-03-21T23:16:38.307Z,96456.59
2023-03-21T23:19:08.966Z,96461.88
2023-03-21T23:21:38.411Z,96468.81
2023-03-21T23:24:06.901Z,96462.84
2023-03-21T23:26:36.003Z,96459.84
2023-03-21T23:29:04.080Z,96453.13
2023-03-21T23:31:33.153Z,96453.50
2023-03-21T23:34:01.521Z,96457.44
2023-03-21T23:36:31.117Z,96459.84
2023-03-21T23:38:59.156Z,96457.47
2023-03-21T23:41:27.158Z,96455.91
2023-03-21T23:43:55.019Z,96461.88
2023-03-21T23:46:23.120Z,96464.03
2023-03-21T23:48:51.010Z,96462.72
2023-03-21T23:51:19.726Z,96460.44
2023-03-21T23:53:48.923Z,96461.28
2023-03-21T23:56:19.255Z,96460.19
2023-03-21T23:58:47.871Z,96456.72
